createdAt,value
2023-05-04T00:01:26.502Z,4.28
2023-05-04T00:03:54.718Z,4.53
2023-05-04T00:06:21.388Z,4.20
2023-05-04T00:08:47.881Z,3.95
2023-05-04T00:11:14.367Z,4.20
2023-05-04T00:13:41.276Z,4.30
2023-05-04T00:16:10.476Z,3.88
2023-05-04T00:18:37.569Z,3.40
2023-05-04T00:21:04.133Z,3.72
2023-05-04T00:23:30.797Z,3.92
2023-05-04T00:26:00.780Z,4.00
2023-05-04T00:28:27.335Z,4.68
2023-05-04T00:30:54.728Z,4.20
2023-05-04T00:33:21.802Z,4.15
2023-05-04T00:35:48.360Z,4.47
2023-05-04T00:38:16.693Z,4.47
2023-05-04T00:40:43.282Z,4.13
2023-05-04T00:43:11.434Z,4.03
2023-05-04T00:45:38.673Z,3.95
2023-05-04T00:48:06.290Z,4.28
2023-05-04T00:50:32.935Z,3.58
2023-05-04T00:53:05.464Z,4.10
2023-05-04T00:55:32.358Z,4.20
2023-05-04T00:57:59.064Z,3.63
2023-05-04T01:00:25.809Z,3.35
2023-05-04T01:02:52.447Z,3.58
2023-05-04T01:05:19.345Z,3.85
2023-05-04T01:08:01.195Z,3.70
2023-05-04T01:10:36.389Z,4.15
2023-05-04T01:13:09.738Z,3.90
2023-05-04T01:15:36.685Z,3.95
2023-05-04T01:18:03.439Z,3.85
2023-05-04T01:20:30.465Z,3.70
2023-05-04T01:22:57.107Z,3.85
2023-05-04T01:25:28.633Z,3.80
2023-05-04T01:28:12.554Z,3.67
2023-05-04T01:30:49.896Z,3.70
2023-05-04T01:33:17.145Z,4.40
2023-05-04T01:35:43.845Z,4.45
2023-05-04T01:38:10.460Z,4.20
2023-05-04T01:40:37.012Z,4.57
2023-05-04T01:43:03.542Z,3.80
2023-05-04T01:45:31.168Z,3.60
2023-05-04T01:47:57.804Z,4.05
2023-05-04T01:50:24.492Z,4.03
2023-05-04T01:52:51.049Z,4.25
2023-05-04T01:55:17.583Z,3.85
2023-05-04T01:57:44.130Z,4.00
2023-05-04T02:00:12.045Z,4.20
2023-05-04T02:02:44.764Z,4.32
2023-05-04T02:05:15.889Z,4.40
2023-05-04T02:07:42.416Z,4.00
2023-05-04T02:10:09.267Z,4.20
2023-05-04T02:12:35.886Z,4.03
2023-05-04T02:15:02.965Z,4.18
2023-05-04T02:17:30.777Z,4.07
2023-05-04T02:19:57.358Z,4.22
2023-05-04T02:22:23.924Z,4.20
2023-05-04T02:24:52.684Z,3.70
2023-05-04T02:27:19.177Z,4.80
2023-05-04T02:29:45.685Z,4.13
2023-05-04T02:32:12.166Z,4.20
2023-05-04T02:34:38.746Z,4.27
2023-05-04T02:37:07.357Z,3.90
2023-05-04T02:39:34.802Z,4.60
2023-05-04T02:42:01.716Z,3.90
2023-05-04T02:44:28.212Z,4.25
2023-05-04T02:46:54.691Z,4.10
2023-05-04T02:49:21.655Z,4.20
2023-05-04T02:51:48.209Z,4.32
2023-05-04T02:54:14.747Z,4.57
2023-05-04T02:56:41.389Z,4.50
2023-05-04T02:59:07.914Z,4.57
2023-05-04T03:01:35.000Z,4.57
2023-05-04T03:04:01.828Z,4.95
2023-05-04T03:06:29.167Z,4.95
2023-05-04T03:08:55.993Z,5.05
2023-05-04T03:11:22.491Z,4.67
2023-05-04T03:13:49.026Z,4.70
2023-05-04T03:16:16.695Z,5.50
2023-05-04T03:21:27.653Z,4.93
2023-05-04T03:23:54.533Z,5.00
2023-05-04T03:26:21.493Z,5.30
2023-05-04T03:28:48.882Z,5.10
2023-05-04T03:31:15.471Z,5.35
2023-05-04T03:33:42.436Z,5.68
2023-05-04T03:36:11.981Z,5.00
2023-05-04T03:38:41.662Z,5.70
2023-05-04T03:41:08.194Z,5.35
2023-05-04T03:43:34.732Z,5.28
2023-05-04T03:46:01.444Z,5.05
2023-05-04T03:48:28.021Z,5.80
2023-05-04T03:50:54.629Z,5.32
2023-05-04T03:53:21.316Z,6.32
2023-05-04T03:55:48.120Z,5.97
2023-05-04T03:58:14.768Z,5.68
2023-05-04T04:00:41.537Z,5.87
2023-05-04T04:03:13.244Z,6.50
2023-05-04T04:05:40.048Z,6.00
2023-05-04T04:08:07.054Z,5.90
2023-05-04T04:10:34.813Z,5.53
2023-05-04T04:13:01.463Z,5.90
2023-05-04T04:15:28.162Z,6.40
2023-05-04T04:17:54.682Z,6.38
2023-05-04T04:20:21.289Z,5.72
2023-05-04T04:22:47.824Z,6.05
2023-05-04T04:25:14.353Z,6.80
2023-05-04T04:27:41.313Z,6.53
2023-05-04T04:30:08.326Z,6.32
2023-05-04T04:32:35.149Z,6.90
2023-05-04T04:35:01.758Z,6.35
2023-05-04T04:37:28.397Z,6.28
2023-05-04T04:39:54.911Z,6.40
2023-05-04T04:42:21.415Z,7.43
2023-05-04T04:44:49.467Z,6.47
2023-05-04T04:47:16.662Z,6.68
2023-05-04T04:49:43.449Z,6.37
2023-05-04T04:52:11.375Z,6.60
2023-05-04T04:54:38.769Z,6.57
2023-05-04T04:57:06.041Z,7.22
2023-05-04T04:59:32.759Z,6.60
2023-05-04T05:02:00.471Z,7.57
2023-05-04T05:04:27.140Z,7.30
2023-05-04T05:06:54.191Z,7.25
2023-05-04T05:09:20.846Z,7.18
2023-05-04T05:11:47.350Z,7.30
2023-05-04T05:14:13.900Z,6.57
2023-05-04T05:16:40.710Z,7.00
2023-05-04T05:19:07.598Z,6.35
2023-05-04T05:21:34.145Z,7.25
2023-05-04T05:24:01.767Z,6.80
2023-05-04T05:26:28.359Z,7.27
2023-05-04T05:28:54.834Z,6.45
2023-05-04T05:31:22.227Z,7.00
2023-05-04T05:33:48.915Z,7.57
2023-05-04T05:36:15.459Z,6.15
2023-05-04T05:38:42.020Z,7.43
2023-05-04T05:41:09.697Z,7.13
2023-05-04T05:43:38.498Z,6.97
2023-05-04T05:46:06.395Z,7.03
2023-05-04T05:48:33.541Z,6.78
2023-05-04T05:51:00.294Z,7.10
2023-05-04T05:53:26.855Z,7.30
2023-05-04T05:55:53.380Z,6.97
2023-05-04T05:58:19.910Z,6.47
2023-05-04T06:00:47.542Z,6.70
2023-05-04T06:03:14.461Z,7.03
2023-05-04T06:05:41.587Z,7.32
2023-05-04T06:08:08.208Z,6.90
2023-05-04T06:10:35.051Z,7.18
2023-05-04T06:13:01.735Z,6.75
2023-05-04T06:15:28.491Z,7.10
2023-05-04T06:17:55.129Z,6.55
2023-05-04T06:20:22.703Z,6.32
2023-05-04T06:22:49.182Z,6.93
2023-05-04T06:25:15.746Z,6.65
2023-05-04T06:27:42.281Z,5.77
2023-05-04T06:30:09.458Z,6.57
2023-05-04T06:32:36.288Z,5.82
2023-05-04T06:35:03.226Z,6.53
2023-05-04T06:37:29.710Z,6.32
2023-05-04T06:39:56.504Z,5.80
2023-05-04T06:42:23.045Z,5.85
2023-05-04T06:44:51.328Z,6.78
2023-05-04T06:47:18.136Z,6.53
2023-05-04T06:49:44.628Z,5.70
2023-05-04T06:52:11.506Z,6.13
2023-05-04T06:54:39.959Z,6.03
2023-05-04T06:57:06.611Z,6.10
2023-05-04T06:59:33.165Z,6.80
2023-05-04T07:01:59.739Z,6.15
2023-05-04T07:04:26.408Z,6.40
2023-05-04T07:06:52.973Z,5.90
2023-05-04T07:09:20.300Z,6.50
2023-05-04T07:11:48.706Z,6.57
2023-05-04T07:14:15.986Z,5.35
2023-05-04T07:16:42.592Z,5.90
2023-05-04T07:19:10.443Z,5.60
2023-05-04T07:21:37.526Z,6.30
2023-05-04T07:24:04.959Z,6.00
2023-05-04T07:26:31.578Z,5.28
2023-05-04T07:28:58.148Z,5.90
2023-05-04T07:31:24.937Z,6.10
2023-05-04T07:33:51.645Z,6.15
2023-05-04T07:36:18.266Z,5.97
2023-05-04T07:38:44.980Z,5.90
2023-05-04T07:41:11.625Z,5.37
2023-05-04T07:43:38.380Z,6.13
2023-05-04T07:46:04.951Z,5.75
2023-05-04T07:48:34.241Z,5.65
2023-05-04T07:51:01.279Z,6.40
2023-05-04T07:53:27.801Z,5.93
2023-05-04T07:55:54.727Z,6.75
2023-05-04T07:58:21.384Z,6.22
2023-05-04T08:00:48.116Z,5.43
2023-05-04T08:03:14.848Z,6.20
2023-05-04T08:05:41.441Z,6.07
2023-05-04T08:08:11.043Z,6.72
2023-05-04T08:10:38.112Z,6.07
2023-05-04T08:13:05.607Z,5.78
2023-05-04T08:15:32.704Z,5.88
2023-05-04T08:17:59.342Z,5.37
2023-05-04T08:20:26.095Z,5.82
2023-05-04T08:22:53.272Z,5.72
2023-05-04T08:25:19.932Z,5.75
2023-05-04T08:27:46.734Z,6.60
2023-05-04T08:30:13.888Z,6.03
2023-05-04T08:32:43.128Z,5.70
2023-05-04T08:35:09.736Z,6.18
2023-05-04T08:37:36.655Z,5.95
2023-05-04T08:40:04.814Z,6.10
2023-05-04T08:42:32.885Z,6.60
2023-05-04T08:44:59.574Z,5.75
2023-05-04T08:47:28.993Z,5.95
2023-05-04T08:49:59.154Z,5.90
2023-05-04T08:52:27.297Z,5.60
2023-05-04T08:54:56.033Z,5.97
2023-05-04T08:57:26.138Z,6.07
2023-05-04T08:59:54.112Z,5.95
2023-05-04T09:02:25.165Z,5.97
2023-05-04T09:04:52.955Z,5.90
2023-05-04T09:07:21.260Z,5.37
2023-05-04T09:09:48.451Z,5.60
2023-05-04T09:12:15.132Z,5.53
2023-05-04T09:14:41.858Z,5.90
2023-05-04T09:17:18.135Z,5.78
2023-05-04T09:19:44.928Z,6.07
2023-05-04T09:22:18.713Z,5.65
2023-05-04T09:24:46.582Z,5.10
2023-05-04T09:27:14.450Z,6.10
2023-05-04T09:29:42.479Z,6.10
2023-05-04T09:32:14.330Z,5.90
2023-05-04T09:34:54.590Z,5.97
2023-05-04T09:37:22.204Z,5.60
2023-05-04T09:39:53.732Z,6.15
2023-05-04T09:42:21.416Z,5.75
2023-05-04T09:45:03.361Z,5.90
2023-05-04T09:47:40.567Z,5.68
2023-05-04T09:50:20.815Z,5.43
2023-05-04T09:52:49.340Z,5.82
2023-05-04T09:55:18.693Z,4.95
2023-05-04T09:57:46.614Z,5.87
2023-05-04T10:00:18.179Z,6.00
2023-05-04T10:02:46.512Z,6.35
2023-05-04T10:05:16.692Z,5.72
2023-05-04T10:07:46.674Z,6.20
2023-05-04T10:10:14.238Z,5.10
2023-05-04T10:12:40.894Z,5.80
2023-05-04T10:15:11.842Z,5.30
2023-05-04T10:18:03.223Z,4.93
2023-05-04T10:20:58.130Z,4.60
2023-05-04T10:24:03.521Z,5.47
2023-05-04T10:26:55.302Z,5.18
2023-05-04T10:29:24.466Z,5.35
2023-05-04T10:31:52.713Z,4.85
2023-05-04T10:34:28.027Z,4.75
2023-05-04T10:36:55.241Z,4.57
2023-05-04T10:39:25.536Z,4.50
2023-05-04T10:42:06.487Z,4.57
2023-05-04T10:44:39.859Z,3.85
2023-05-04T10:47:08.196Z,4.72
2023-05-04T10:49:35.999Z,4.43
2023-05-04T10:52:16.001Z,4.55
2023-05-04T10:54:43.771Z,4.20
2023-05-04T10:57:22.060Z,3.60
2023-05-04T10:59:59.188Z,4.22
2023-05-04T11:02:28.450Z,4.50
2023-05-04T11:05:04.725Z,4.25
2023-05-04T11:07:38.870Z,4.32
2023-05-04T11:10:08.083Z,4.28
2023-05-04T11:12:35.285Z,4.35
2023-05-04T11:15:06.113Z,3.97
2023-05-04T11:17:33.315Z,4.00
2023-05-04T11:20:01.080Z,4.10
2023-05-04T11:22:28.147Z,3.95
2023-05-04T11:24:56.225Z,4.05
2023-05-04T11:27:28.435Z,4.23
2023-05-04T11:30:03.140Z,4.13
2023-05-04T11:32:47.959Z,3.25
2023-05-04T11:35:16.541Z,4.00
2023-05-04T11:37:45.093Z,3.95
2023-05-04T11:40:18.168Z,3.37
2023-05-04T11:42:45.373Z,3.45
2023-05-04T11:45:28.251Z,3.40
2023-05-04T11:47:56.787Z,3.05
2023-05-04T11:50:25.995Z,3.25
2023-05-04T11:53:13.646Z,3.23
2023-05-04T11:55:41.907Z,3.40
2023-05-04T11:58:10.793Z,2.50
2023-05-04T12:00:43.267Z,3.35
2023-05-04T12:03:15.355Z,4.10
2023-05-04T12:05:52.791Z,3.43
2023-05-04T12:08:22.399Z,3.42
2023-05-04T12:10:49.063Z,4.20
2023-05-04T12:13:17.202Z,3.15
2023-05-04T12:15:44.019Z,3.58
2023-05-04T12:18:21.869Z,3.70
2023-05-04T12:20:48.394Z,4.05
2023-05-04T12:23:15.016Z,3.65
2023-05-04T12:25:54.721Z,3.30
2023-05-04T12:28:26.792Z,3.63
2023-05-04T12:30:53.617Z,4.00
2023-05-04T12:33:21.041Z,3.70
2023-05-04T12:35:47.985Z,3.42
2023-05-04T12:38:14.757Z,3.95
2023-05-04T12:40:42.867Z,4.25
2023-05-04T12:43:10.281Z,3.47
2023-05-04T12:45:37.251Z,4.18
2023-05-04T12:48:03.968Z,3.72
2023-05-04T12:50:30.532Z,4.30
2023-05-04T12:52:57.297Z,3.92
2023-05-04T12:55:25.423Z,4.20
2023-05-04T12:57:52.282Z,3.75
2023-05-04T13:00:19.276Z,5.13
2023-05-04T13:02:46.184Z,4.43
2023-05-04T13:05:13.150Z,3.55
2023-05-04T13:07:39.817Z,4.90
2023-05-04T13:10:06.761Z,4.85
2023-05-04T13:12:34.038Z,5.15
2023-05-04T13:15:00.918Z,4.50
2023-05-04T13:17:29.526Z,4.55
2023-05-04T13:19:56.185Z,4.90
2023-05-04T13:22:22.914Z,5.00
2023-05-04T13:24:49.496Z,4.28
2023-05-04T13:27:16.187Z,5.05
2023-05-04T13:29:42.758Z,4.40
2023-05-04T13:32:09.585Z,4.70
2023-05-04T13:34:36.112Z,5.18
2023-05-04T13:37:02.990Z,5.18
2023-05-04T13:39:29.595Z,5.45
2023-05-04T13:41:56.881Z,4.65
2023-05-04T13:44:23.662Z,4.90
2023-05-04T13:46:50.236Z,4.78
2023-05-04T13:49:16.777Z,4.15
2023-05-04T13:51:43.437Z,4.10
2023-05-04T13:54:10.026Z,5.20
2023-05-04T13:56:36.586Z,4.63
2023-05-04T13:59:03.455Z,4.75
2023-05-04T14:01:30.417Z,4.70
2023-05-04T14:03:58.000Z,5.07
2023-05-04T14:06:26.063Z,4.72
2023-05-04T14:08:52.735Z,4.97
2023-05-04T14:11:20.429Z,4.97
2023-05-04T14:13:48.634Z,5.00
2023-05-04T14:16:15.175Z,5.82
2023-05-04T14:18:41.793Z,5.50
2023-05-04T14:21:08.421Z,5.50
2023-05-04T14:23:35.356Z,5.68
2023-05-04T14:26:01.988Z,5.50
2023-05-04T14:28:28.594Z,5.55
2023-05-04T14:30:55.311Z,5.10
2023-05-04T14:33:21.861Z,5.53
2023-05-04T14:35:48.622Z,5.20
2023-05-04T14:38:15.894Z,5.35
2023-05-04T14:40:42.601Z,5.53
2023-05-04T14:43:09.183Z,5.80
2023-05-04T14:45:35.900Z,5.23
2023-05-04T14:48:02.561Z,5.60
2023-05-04T14:50:29.088Z,5.35
2023-05-04T14:52:55.723Z,5.78
2023-05-04T14:55:22.444Z,4.80
2023-05-04T14:57:52.271Z,6.83
2023-05-04T15:00:19.734Z,5.80
2023-05-04T15:02:46.355Z,5.07
2023-05-04T15:05:13.272Z,5.72
2023-05-04T15:07:40.335Z,5.60
2023-05-04T15:10:08.511Z,5.80
2023-05-04T15:12:36.148Z,5.95
2023-05-04T15:15:03.185Z,5.82
2023-05-04T15:17:30.997Z,5.80
2023-05-04T15:19:57.689Z,5.63
2023-05-04T15:22:24.466Z,6.00
2023-05-04T15:24:51.510Z,5.90
2023-05-04T15:27:18.001Z,5.82
2023-05-04T15:29:44.649Z,5.97
2023-05-04T15:32:11.691Z,5.82
2023-05-04T15:34:38.229Z,7.03
2023-05-04T15:37:05.258Z,5.80
2023-05-04T15:39:31.951Z,5.55
2023-05-04T15:41:58.817Z,5.45
2023-05-04T15:44:27.717Z,5.50
2023-05-04T15:46:54.312Z,5.70
2023-05-04T15:49:21.109Z,5.90
2023-05-04T15:51:47.728Z,4.90
2023-05-04T15:54:14.464Z,6.03
2023-05-04T15:56:41.022Z,5.90
2023-05-04T15:59:07.633Z,5.50
2023-05-04T16:01:34.525Z,5.85
2023-05-04T16:04:01.540Z,5.50
2023-05-04T16:06:28.299Z,5.50
2023-05-04T16:08:54.839Z,4.90
2023-05-04T16:11:21.635Z,5.90
2023-05-04T16:13:48.198Z,5.40
2023-05-04T16:16:14.887Z,5.20
2023-05-04T16:18:41.522Z,4.97
2023-05-04T16:21:08.996Z,5.30
2023-05-04T16:23:36.362Z,5.10
2023-05-04T16:26:02.981Z,4.68
2023-05-04T16:28:29.515Z,4.88
2023-05-04T16:30:56.291Z,4.63
2023-05-04T16:33:25.011Z,4.40
2023-05-04T16:35:51.572Z,4.40
2023-05-04T16:38:19.544Z,4.18
2023-05-04T16:40:46.209Z,3.88
2023-05-04T16:43:12.982Z,4.10
2023-05-04T16:45:39.901Z,4.10
2023-05-04T16:48:06.667Z,3.53
2023-05-04T16:50:33.371Z,4.43
2023-05-04T16:52:59.949Z,3.13
2023-05-04T16:55:27.058Z,4.35
2023-05-04T16:57:56.756Z,3.92
2023-05-04T17:00:23.831Z,3.80
2023-05-04T17:02:51.794Z,3.70
2023-05-04T17:05:19.302Z,3.45
2023-05-04T17:07:46.669Z,2.95
2023-05-04T17:10:14.695Z,3.13
2023-05-04T17:12:42.323Z,3.20
2023-05-04T17:15:10.527Z,3.72
2023-05-04T17:17:37.204Z,3.15
2023-05-04T17:20:04.113Z,3.55
2023-05-04T17:22:30.913Z,3.58
2023-05-04T17:24:57.530Z,3.80
2023-05-04T17:27:24.156Z,3.30
2023-05-04T17:29:51.097Z,2.88
2023-05-04T17:32:18.137Z,2.70
2023-05-04T17:34:44.799Z,3.30
2023-05-04T17:37:11.295Z,3.27
2023-05-04T17:39:37.819Z,3.70
2023-05-04T17:42:04.543Z,3.60
2023-05-04T17:44:32.782Z,3.50
2023-05-04T17:47:00.170Z,3.05
2023-05-04T17:49:26.925Z,2.60
2023-05-04T17:51:53.517Z,2.58
2023-05-04T17:54:20.044Z,2.90
2023-05-04T17:56:46.690Z,2.70
2023-05-04T17:59:13.540Z,3.50
2023-05-04T18:01:40.229Z,3.33
2023-05-04T18:04:06.799Z,3.53
2023-05-04T18:06:33.420Z,3.10
2023-05-04T18:09:01.056Z,3.10
2023-05-04T18:11:27.763Z,3.50
2023-05-04T18:13:56.466Z,4.10
2023-05-04T18:16:24.542Z,3.30
2023-05-04T18:18:51.388Z,3.60
2023-05-04T18:21:18.213Z,3.80
2023-05-04T18:23:45.150Z,3.80
2023-05-04T18:26:18.190Z,3.70
2023-05-04T18:28:44.793Z,3.30
2023-05-04T18:31:11.308Z,3.03
2023-05-04T18:33:38.640Z,3.28
2023-05-04T18:36:05.759Z,3.00
2023-05-04T18:38:34.380Z,3.10
2023-05-04T18:41:00.963Z,3.17
2023-05-04T18:43:27.477Z,2.78
2023-05-04T18:45:54.167Z,2.90
2023-05-04T18:48:21.213Z,2.90
2023-05-04T18:50:54.011Z,2.90
2023-05-04T18:53:20.746Z,2.90
2023-05-04T18:55:47.346Z,3.03
2023-05-04T18:58:13.861Z,2.90
2023-05-04T19:00:42.354Z,3.47
2023-05-04T19:03:09.117Z,2.83
2023-05-04T19:05:36.099Z,2.70
2023-05-04T19:08:02.623Z,2.75
2023-05-04T19:10:29.225Z,2.63
2023-05-04T19:12:55.874Z,2.70
2023-05-04T19:15:23.778Z,2.70
2023-05-04T19:17:50.506Z,2.65
2023-05-04T19:20:18.726Z,3.05
2023-05-04T19:22:46.154Z,2.58
2023-05-04T19:25:20.519Z,2.72
2023-05-04T19:27:53.814Z,2.73
2023-05-04T19:30:20.426Z,2.63
2023-05-04T19:32:46.971Z,2.60
2023-05-04T19:35:14.609Z,3.30
2023-05-04T19:37:42.069Z,3.15
2023-05-04T19:40:09.319Z,2.60
2023-05-04T19:42:36.002Z,3.00
2023-05-04T19:45:05.375Z,3.00
2023-05-04T19:47:32.335Z,3.55
2023-05-04T19:49:59.102Z,4.30
2023-05-04T19:52:25.862Z,5.00
2023-05-04T19:54:53.832Z,4.63
2023-05-04T19:57:21.186Z,3.42
2023-05-04T19:59:47.856Z,3.72
2023-05-04T20:02:14.954Z,3.78
2023-05-04T20:04:41.589Z,4.37
2023-05-04T20:07:08.523Z,4.38
2023-05-04T20:09:35.796Z,3.80
2023-05-04T20:12:02.902Z,4.07
2023-05-04T20:14:29.425Z,4.65
2023-05-04T20:16:56.085Z,3.43
2023-05-04T20:19:23.014Z,4.20
2023-05-04T20:21:49.633Z,3.83
2023-05-04T20:24:16.487Z,3.90
2023-05-04T20:26:43.063Z,3.92
2023-05-04T20:29:09.640Z,3.73
2023-05-04T20:31:36.406Z,4.00
2023-05-04T20:34:06.110Z,3.95
2023-05-04T20:36:33.270Z,3.78
2023-05-04T20:39:00.262Z,3.10
2023-05-04T20:41:26.899Z,3.77
2023-05-04T20:43:53.681Z,3.35
2023-05-04T20:46:20.368Z,3.15
2023-05-04T20:48:47.017Z,3.92
2023-05-04T20:51:15.236Z,3.33
2023-05-04T20:53:42.020Z,3.20
2023-05-04T20:56:09.016Z,3.03
2023-05-04T20:58:35.671Z,3.47
2023-05-04T21:01:03.887Z,3.28
2023-05-04T21:03:30.882Z,3.40
2023-05-04T21:05:57.877Z,3.20
2023-05-04T21:08:24.798Z,2.88
2023-05-04T21:10:52.075Z,2.80
2023-05-04T21:13:19.445Z,3.20
2023-05-04T21:15:46.047Z,3.00
2023-05-04T21:18:12.685Z,2.93
2023-05-04T21:20:39.379Z,2.80
2023-05-04T21:23:06.284Z,3.33
2023-05-04T21:25:33.159Z,3.10
2023-05-04T21:27:59.773Z,3.10
2023-05-04T21:30:26.797Z,2.87
2023-05-04T21:32:53.387Z,2.88
2023-05-04T21:35:21.923Z,3.05
2023-05-04T21:37:48.812Z,3.00
2023-05-04T21:40:15.472Z,2.97
2023-05-04T21:42:42.054Z,2.83
2023-05-04T21:45:08.790Z,3.30
2023-05-04T21:47:36.327Z,3.17
2023-05-04T21:50:04.256Z,2.90
2023-05-04T21:52:31.040Z,2.90
2023-05-04T21:54:57.733Z,3.10
2023-05-04T21:57:25.836Z,3.47
2023-05-04T21:59:52.425Z,3.00
2023-05-04T22:02:19.162Z,2.90
2023-05-04T22:04:45.980Z,2.95
2023-05-04T22:07:12.722Z,3.23
2023-05-04T22:09:39.338Z,3.00
2023-05-04T22:12:07.626Z,3.05
2023-05-04T22:14:34.684Z,3.22
2023-05-04T22:17:01.547Z,3.17
2023-05-04T22:19:28.286Z,3.00
2023-05-04T22:21:55.974Z,3.00
2023-05-04T22:24:22.628Z,2.95
2023-05-04T22:26:49.401Z,2.70
2023-05-04T22:29:16.045Z,2.85
2023-05-04T22:31:42.720Z,3.10
2023-05-04T22:34:09.310Z,2.95
2023-05-04T22:36:35.977Z,2.80
2023-05-04T22:39:02.657Z,2.83
2023-05-04T22:41:29.177Z,3.03
2023-05-04T22:43:56.104Z,2.73
2023-05-04T22:46:22.825Z,3.00
2023-05-04T22:48:49.785Z,3.10
2023-05-04T22:51:16.544Z,3.20
2023-05-04T22:53:43.194Z,3.25
2023-05-04T22:56:09.774Z,3.03
2023-05-04T22:58:36.471Z,2.90
2023-05-04T23:01:07.837Z,3.35
2023-05-04T23:03:34.872Z,3.10
2023-05-04T23:06:02.605Z,3.28
2023-05-04T23:08:29.375Z,3.23
2023-05-04T23:10:56.013Z,3.20
2023-05-04T23:13:22.632Z,3.38
2023-05-04T23:15:49.367Z,3.08
2023-05-04T23:18:16.070Z,3.20
2023-05-04T23:20:42.717Z,3.30
2023-05-04T23:23:09.473Z,3.00
2023-05-04T23:25:36.302Z,3.30
2023-05-04T23:28:03.793Z,4.10
2023-05-04T23:30:30.411Z,3.30
2023-05-04T23:32:57.796Z,3.50
2023-05-04T23:35:24.564Z,3.10
2023-05-04T23:37:51.423Z,2.95
2023-05-04T23:40:17.989Z,3.65
2023-05-04T23:42:48.795Z,3.30
2023-05-04T23:45:15.504Z,3.20
2023-05-04T23:47:42.156Z,2.97
2023-05-04T23:50:09.220Z,3.63
2023-05-04T23:52:36.020Z,3.60
2023-05-04T23:55:03.670Z,3.45
2023-05-04T23:57:30.504Z,3.40
2023-05-04T23:59:57.191Z,3.38
